createdAt,value
2023-05-08T00:01:56.592Z,16.50
2023-05-08T00:04:24.312Z,11.25
2023-05-08T00:06:53.090Z,18.50
2023-05-08T00:09:20.762Z,15.50
2023-05-08T00:11:48.618Z,16.00
2023-05-08T00:14:16.191Z,15.00
2023-05-08T00:16:44.381Z,18.00
2023-05-08T00:19:12.147Z,15.00
2023-05-08T00:21:40.321Z,17.25
2023-05-08T00:24:07.978Z,20.50
2023-05-08T00:26:35.570Z,13.00
2023-05-08T00:29:05.025Z,20.75
2023-05-08T00:31:33.690Z,23.25
2023-05-08T00:34:01.678Z,20.50
2023-05-08T00:36:29.300Z,17.50
2023-05-08T00:38:57.277Z,12.50
2023-05-08T00:41:24.855Z,15.00
2023-05-08T00:43:52.447Z,16.00
2023-05-08T00:46:20.489Z,15.50
2023-05-08T00:48:48.238Z,14.50
2023-05-08T00:51:15.885Z,16.00
2023-05-08T00:53:45.383Z,13.00
2023-05-08T00:56:13.189Z,12.25
2023-05-08T00:58:41.198Z,17.50
2023-05-08T01:01:09.670Z,17.25
2023-05-08T01:03:37.878Z,18.50
2023-05-08T01:06:06.817Z,18.50
2023-05-08T01:08:34.576Z,19.00
2023-05-08T01:11:02.548Z,16.75
2023-05-08T01:13:30.133Z,12.50
2023-05-08T01:15:57.904Z,18.00
2023-05-08T01:18:25.516Z,18.00
2023-05-08T01:20:53.060Z,19.00
2023-05-08T01:23:21.472Z,16.50
2023-05-08T01:25:49.085Z,18.00
2023-05-08T01:28:16.656Z,10.50
2023-05-08T01:30:44.284Z,15.25
2023-05-08T01:33:12.004Z,18.00
2023-05-08T01:35:39.626Z,14.75
2023-05-08T01:38:07.319Z,19.00
2023-05-08T01:40:34.987Z,12.75
2023-05-08T01:43:02.618Z,19.50
2023-05-08T01:45:30.605Z,20.00
2023-05-08T01:47:58.590Z,20.00
2023-05-08T01:50:26.250Z,20.00
2023-05-08T01:52:53.868Z,19.50
2023-05-08T01:55:21.522Z,20.50
2023-05-08T01:57:49.199Z,20.50
2023-05-08T02:00:17.165Z,19.75
2023-05-08T02:02:44.969Z,22.25
2023-05-08T02:05:12.648Z,20.00
2023-05-08T02:07:40.248Z,19.00
2023-05-08T02:10:07.833Z,19.00
2023-05-08T02:12:35.763Z,19.00
2023-05-08T02:15:03.667Z,18.00
2023-05-08T02:17:31.313Z,16.50
2023-05-08T02:19:58.906Z,19.50
2023-05-08T02:22:26.499Z,17.50
2023-05-08T02:24:55.778Z,15.75
2023-05-08T02:27:23.351Z,9.25
2023-05-08T02:29:51.379Z,13.00
2023-05-08T02:32:19.000Z,8.50
2023-05-08T02:34:58.875Z,17.50
2023-05-08T02:37:30.065Z,18.75
2023-05-08T02:39:57.668Z,12.25
2023-05-08T02:42:25.223Z,19.00
2023-05-08T02:44:52.861Z,13.00
2023-05-08T02:47:21.127Z,20.00
2023-05-08T02:49:49.284Z,18.00
2023-05-08T02:52:16.935Z,18.50
2023-05-08T02:54:44.677Z,21.25
2023-05-08T02:57:12.281Z,22.75
2023-05-08T02:59:39.897Z,21.25
2023-05-08T03:02:07.830Z,22.75
2023-05-08T03:04:35.393Z,19.50
2023-05-08T03:07:03.027Z,19.50
2023-05-08T03:09:30.609Z,19.00
2023-05-08T03:11:58.480Z,23.50
2023-05-08T03:14:26.135Z,20.50
2023-05-08T03:16:53.712Z,24.75
2023-05-08T03:19:23.152Z,17.75
2023-05-08T03:21:51.046Z,18.75
2023-05-08T03:24:18.622Z,24.00
2023-05-08T03:26:46.569Z,18.25
2023-05-08T03:29:14.148Z,19.25
2023-05-08T03:31:41.809Z,21.50
2023-05-08T03:34:09.429Z,17.00
2023-05-08T03:36:37.019Z,16.00
2023-05-08T03:39:05.177Z,19.00
2023-05-08T03:41:32.761Z,14.50
2023-05-08T03:44:00.373Z,12.00
2023-05-08T03:46:28.007Z,19.00
2023-05-08T03:48:55.644Z,7.00
2023-05-08T03:51:23.469Z,12.00
2023-05-08T03:53:51.430Z,11.75
2023-05-08T03:56:19.018Z,14.50
2023-05-08T03:58:46.653Z,11.75
2023-05-08T04:01:14.238Z,12.50
2023-05-08T04:03:42.311Z,12.75
2023-05-08T04:06:10.051Z,15.00
2023-05-08T04:08:37.657Z,13.50
2023-05-08T04:11:05.263Z,15.25
2023-05-08T04:13:32.922Z,17.00
2023-05-08T04:16:02.143Z,9.00
2023-05-08T04:18:29.893Z,15.00
2023-05-08T04:20:57.502Z,13.00
2023-05-08T04:23:25.116Z,15.00
2023-05-08T04:25:52.732Z,17.00
2023-05-08T04:28:20.516Z,18.50
2023-05-08T04:30:48.121Z,13.00
2023-05-08T04:33:15.756Z,15.25
2023-05-08T04:35:43.384Z,15.25
2023-05-08T04:38:10.955Z,15.00
2023-05-08T04:40:38.984Z,18.00
2023-05-08T04:43:06.601Z,14.75
2023-05-08T04:45:35.160Z,16.50
2023-05-08T04:48:02.858Z,19.00
2023-05-08T04:50:30.561Z,15.50
2023-05-08T04:52:59.076Z,14.75
2023-05-08T04:55:26.742Z,11.00
2023-05-08T04:57:54.418Z,15.00
2023-05-08T05:00:22.310Z,7.50
2023-05-08T05:02:49.921Z,20.00
2023-05-08T05:05:18.290Z,13.00
2023-05-08T05:07:45.873Z,17.00
2023-05-08T05:10:13.496Z,15.25
2023-05-08T05:12:41.257Z,15.75
2023-05-08T05:15:08.901Z,17.25
2023-05-08T05:17:36.962Z,13.75
2023-05-08T05:20:05.274Z,15.50
2023-05-08T05:22:34.821Z,15.00
2023-05-08T05:25:02.549Z,10.00
2023-05-08T05:27:30.302Z,17.50
2023-05-08T05:29:58.411Z,16.00
2023-05-08T05:32:26.146Z,16.00
2023-05-08T05:34:54.626Z,17.75
2023-05-08T05:37:22.292Z,12.50
2023-05-08T05:39:49.932Z,13.00
2023-05-08T05:42:18.320Z,17.25
2023-05-08T05:44:46.396Z,13.00
2023-05-08T05:47:14.247Z,12.50
2023-05-08T05:49:43.269Z,14.00
2023-05-08T05:52:10.938Z,14.50
2023-05-08T05:54:39.438Z,14.50
2023-05-08T05:57:07.900Z,9.75
2023-05-08T05:59:35.562Z,7.00
2023-05-08T06:02:03.656Z,12.25
2023-05-08T06:04:31.853Z,13.00
2023-05-08T06:07:01.291Z,14.50
2023-05-08T06:09:29.993Z,13.00
2023-05-08T06:11:58.547Z,13.00
2023-05-08T06:14:26.386Z,12.75
2023-05-08T06:16:54.155Z,15.00
2023-05-08T06:19:25.025Z,15.75
2023-05-08T06:21:52.861Z,15.50
2023-05-08T06:24:20.554Z,13.50
2023-05-08T06:26:48.429Z,14.50
2023-05-08T06:29:16.569Z,4.00
2023-05-08T06:31:45.042Z,14.00
2023-05-08T06:34:13.045Z,16.00
2023-05-08T06:36:40.770Z,7.00
2023-05-08T06:39:08.774Z,14.40
2023-05-08T06:41:37.134Z,10.80
2023-05-08T06:44:05.623Z,11.60
2023-05-08T06:46:33.351Z,9.60
2023-05-08T06:49:01.218Z,14.20
2023-05-08T06:51:29.413Z,10.00
2023-05-08T06:53:57.185Z,12.00
2023-05-08T06:56:25.613Z,10.80
2023-05-08T06:59:01.070Z,7.00
2023-05-08T07:01:36.119Z,12.00
2023-05-08T07:04:05.448Z,7.00
2023-05-08T07:06:33.848Z,10.80
2023-05-08T07:09:01.838Z,13.00
2023-05-08T07:11:30.054Z,7.80
2023-05-08T07:13:57.743Z,8.60
2023-05-08T07:16:25.738Z,12.40
2023-05-08T07:18:55.160Z,4.40
2023-05-08T07:21:23.199Z,9.80
2023-05-08T07:23:52.195Z,9.80
2023-05-08T07:26:20.037Z,13.40
2023-05-08T07:28:47.891Z,9.00
2023-05-08T07:31:16.218Z,12.20
2023-05-08T07:33:44.036Z,12.00
2023-05-08T07:36:11.926Z,12.60
2023-05-08T07:38:39.875Z,12.80
2023-05-08T07:41:08.079Z,10.80
2023-05-08T07:43:36.331Z,9.00
2023-05-08T07:46:04.368Z,11.60
2023-05-08T07:48:32.195Z,12.60
2023-05-08T07:51:00.037Z,10.80
2023-05-08T07:53:27.963Z,12.00
2023-05-08T07:55:55.805Z,9.40
2023-05-08T07:58:24.005Z,13.60
2023-05-08T08:00:51.998Z,14.20
2023-05-08T08:03:19.932Z,13.20
2023-05-08T08:05:47.983Z,13.40
2023-05-08T08:08:16.151Z,10.80
2023-05-08T08:10:44.003Z,12.80
2023-05-08T08:13:11.762Z,14.00
2023-05-08T08:15:40.167Z,7.60
2023-05-08T08:18:08.047Z,5.40
2023-05-08T08:20:36.672Z,13.40
2023-05-08T08:23:04.657Z,12.00
2023-05-08T08:25:32.417Z,11.40
2023-05-08T08:28:00.168Z,13.00
2023-05-08T08:30:27.942Z,11.00
2023-05-08T08:32:55.974Z,13.00
2023-05-08T08:35:29.560Z,11.40
2023-05-08T08:37:57.441Z,11.00
2023-05-08T08:40:25.208Z,9.60
2023-05-08T08:42:53.070Z,9.00
2023-05-08T08:45:21.406Z,11.00
2023-05-08T08:47:49.363Z,8.80
2023-05-08T08:50:17.583Z,7.60
2023-05-08T08:52:45.594Z,9.20
2023-05-08T08:55:13.857Z,14.40
2023-05-08T08:57:42.961Z,10.60
2023-05-08T09:00:11.191Z,11.00
2023-05-08T09:02:39.002Z,11.00
2023-05-08T09:05:06.866Z,11.00
2023-05-08T09:07:34.715Z,9.60
2023-05-08T09:10:03.685Z,10.20
2023-05-08T09:12:31.607Z,11.20
2023-05-08T09:14:59.435Z,8.00
2023-05-08T09:17:27.248Z,14.00
2023-05-08T09:19:55.226Z,10.80
2023-05-08T09:22:25.760Z,11.20
2023-05-08T09:24:53.552Z,7.00
2023-05-08T09:27:21.494Z,10.60
2023-05-08T09:29:49.320Z,7.80
2023-05-08T09:32:17.392Z,12.80
2023-05-08T09:34:46.260Z,8.00
2023-05-08T09:37:14.290Z,10.20
2023-05-08T09:39:43.518Z,13.00
2023-05-08T09:42:11.386Z,9.00
2023-05-08T09:44:39.626Z,11.80
2023-05-08T09:47:07.836Z,10.00
2023-05-08T09:49:35.724Z,10.00
2023-05-08T09:52:03.736Z,9.60
2023-05-08T09:54:31.546Z,10.20
2023-05-08T09:56:59.434Z,6.60
2023-05-08T09:59:28.478Z,5.40
2023-05-08T10:01:56.354Z,7.00
2023-05-08T10:04:24.352Z,7.40
2023-05-08T10:06:53.277Z,7.40
2023-05-08T10:09:22.381Z,5.00
2023-05-08T10:11:52.711Z,8.00
2023-05-08T10:14:20.482Z,8.00
2023-05-08T10:16:49.392Z,11.00
2023-05-08T10:19:17.525Z,9.60
2023-05-08T10:21:45.756Z,8.00
2023-05-08T10:24:14.054Z,9.20
2023-05-08T10:26:45.646Z,8.40
2023-05-08T10:29:22.073Z,10.00
2023-05-08T10:31:50.057Z,10.00
2023-05-08T10:34:18.942Z,11.20
2023-05-08T10:36:46.877Z,8.00
2023-05-08T10:39:14.881Z,8.60
2023-05-08T10:41:42.661Z,6.60
2023-05-08T10:44:10.558Z,3.60
2023-05-08T10:46:39.154Z,8.20
2023-05-08T10:49:07.832Z,7.20
2023-05-08T10:51:35.655Z,9.40
2023-05-08T10:54:03.647Z,6.20
2023-05-08T10:56:31.432Z,5.40
2023-05-08T10:58:59.994Z,7.60
2023-05-08T11:01:28.539Z,8.00
2023-05-08T11:03:56.929Z,8.40
2023-05-08T11:06:24.863Z,8.00
2023-05-08T11:08:54.896Z,8.20
2023-05-08T11:11:24.642Z,5.20
2023-05-08T11:13:52.401Z,9.60
2023-05-08T11:16:20.656Z,8.40
2023-05-08T11:18:49.703Z,9.80
2023-05-08T11:21:17.764Z,8.20
2023-05-08T11:23:46.912Z,10.20
2023-05-08T11:26:15.068Z,8.00
2023-05-08T11:28:43.005Z,10.20
2023-05-08T11:31:11.047Z,7.60
2023-05-08T11:33:39.241Z,10.40
2023-05-08T11:36:07.592Z,8.00
2023-05-08T11:38:36.517Z,8.40
2023-05-08T11:41:04.682Z,11.00
2023-05-08T11:43:32.564Z,10.40
2023-05-08T11:46:00.545Z,9.20
2023-05-08T11:48:29.229Z,10.00
2023-05-08T11:50:57.048Z,8.00
2023-05-08T11:53:24.919Z,8.00
2023-05-08T11:55:52.672Z,9.40
2023-05-08T11:58:20.409Z,10.00
2023-05-08T12:00:48.349Z,7.40
2023-05-08T12:03:16.779Z,11.80
2023-05-08T12:05:44.744Z,7.20
2023-05-08T12:08:12.563Z,8.60
2023-05-08T12:10:40.331Z,10.20
2023-05-08T12:13:08.425Z,7.60
2023-05-08T12:15:37.871Z,4.00
2023-05-08T12:18:05.919Z,8.80
2023-05-08T12:20:33.972Z,8.00
2023-05-08T12:23:02.136Z,4.80
2023-05-08T12:25:30.468Z,10.20
2023-05-08T12:27:58.336Z,13.20
2023-05-08T12:30:26.343Z,10.80
2023-05-08T12:32:54.249Z,12.40
2023-05-08T12:35:22.135Z,10.60
2023-05-08T12:37:50.519Z,11.00
2023-05-08T12:40:18.405Z,12.40
2023-05-08T12:42:48.732Z,9.60
2023-05-08T12:45:16.855Z,10.00
2023-05-08T12:47:44.735Z,4.00
2023-05-08T12:50:13.201Z,10.00
2023-05-08T12:52:41.374Z,8.00
2023-05-08T12:55:09.169Z,8.00
2023-05-08T12:57:36.912Z,9.20
2023-05-08T13:00:05.559Z,9.80
2023-05-08T13:02:37.219Z,7.00
2023-05-08T13:05:07.410Z,8.00
2023-05-08T13:07:35.943Z,10.40
2023-05-08T13:10:05.040Z,11.00
2023-05-08T13:12:33.112Z,11.40
2023-05-08T13:15:02.355Z,11.00
2023-05-08T13:17:30.207Z,8.00
2023-05-08T13:19:58.600Z,9.40
2023-05-08T13:22:26.946Z,10.60
2023-05-08T13:24:54.787Z,7.40
2023-05-08T13:27:23.785Z,8.20
2023-05-08T13:29:51.579Z,12.00
2023-05-08T13:32:19.336Z,8.00
2023-05-08T13:34:50.781Z,11.60
2023-05-08T13:37:20.151Z,8.80
2023-05-08T13:39:48.761Z,10.80
2023-05-08T13:42:17.192Z,12.00
2023-05-08T13:44:45.407Z,11.60
2023-05-08T13:47:13.450Z,5.00
2023-05-08T13:49:41.421Z,8.40
2023-05-08T13:52:09.850Z,11.60
2023-05-08T13:54:38.127Z,14.00
2023-05-08T13:57:06.272Z,9.80
2023-05-08T13:59:34.145Z,9.20
2023-05-08T14:02:02.521Z,9.80
2023-05-08T14:04:30.848Z,11.60
2023-05-08T14:06:58.830Z,8.80
2023-05-08T14:09:26.867Z,11.60
2023-05-08T14:11:54.872Z,6.60
2023-05-08T14:14:22.706Z,13.60
2023-05-08T14:16:52.013Z,13.20
2023-05-08T14:19:19.842Z,12.00
2023-05-08T14:21:48.028Z,13.20
2023-05-08T14:24:16.598Z,11.40
2023-05-08T14:26:45.064Z,12.20
2023-05-08T14:29:13.675Z,7.40
2023-05-08T14:31:41.713Z,15.00
2023-05-08T14:34:09.682Z,11.80
2023-05-08T14:36:37.465Z,11.20
2023-05-08T14:39:05.512Z,12.40
2023-05-08T14:41:34.587Z,13.60
2023-05-08T14:44:02.490Z,12.40
2023-05-08T14:46:31.046Z,12.40
2023-05-08T14:48:58.918Z,11.60
2023-05-08T14:51:27.011Z,12.40
2023-05-08T14:53:55.179Z,12.40
2023-05-08T14:56:24.974Z,11.00
2023-05-08T14:58:53.213Z,15.00
2023-05-08T15:01:21.261Z,11.40
2023-05-08T15:03:53.657Z,11.80
2023-05-08T15:06:22.542Z,11.80
2023-05-08T15:08:52.035Z,11.80
2023-05-08T15:11:19.952Z,11.00
2023-05-08T15:13:48.088Z,11.20
2023-05-08T15:16:15.958Z,11.00
2023-05-08T15:18:44.408Z,11.20
2023-05-08T15:21:12.729Z,12.00
2023-05-08T15:23:40.618Z,5.20
2023-05-08T15:26:08.854Z,13.20
2023-05-08T15:28:36.858Z,11.20
2023-05-08T15:31:07.165Z,8.20
2023-05-08T15:33:35.036Z,12.40
2023-05-08T15:36:03.170Z,9.00
2023-05-08T15:38:31.120Z,12.00
2023-05-08T15:40:58.864Z,10.20
2023-05-08T15:43:27.741Z,8.60
2023-05-08T15:45:55.578Z,11.80
2023-05-08T15:48:23.712Z,15.00
2023-05-08T15:50:51.600Z,12.00
2023-05-08T15:53:19.790Z,11.00
2023-05-08T15:55:48.550Z,12.80
2023-05-08T15:58:16.491Z,10.20
2023-05-08T16:00:45.441Z,12.00
2023-05-08T16:03:13.730Z,12.00
2023-05-08T16:05:41.820Z,11.40
2023-05-08T16:08:13.292Z,12.00
2023-05-08T16:10:41.293Z,14.00
2023-05-08T16:13:09.328Z,12.80
2023-05-08T16:15:40.016Z,13.80
2023-05-08T16:18:08.147Z,14.00
2023-05-08T16:20:36.685Z,11.00
2023-05-08T16:23:04.719Z,11.80
2023-05-08T16:25:32.543Z,12.20
2023-05-08T16:28:00.554Z,13.00
2023-05-08T16:30:28.535Z,17.20
2023-05-08T16:32:56.494Z,14.00
2023-05-08T16:35:24.638Z,9.80
2023-05-08T16:37:52.780Z,14.80
2023-05-08T16:40:20.641Z,12.00
2023-05-08T16:42:48.748Z,15.20
2023-05-08T16:45:17.475Z,13.00
2023-05-08T16:47:45.737Z,15.80
2023-05-08T16:50:13.896Z,14.60
2023-05-08T16:52:41.695Z,13.40
2023-05-08T16:55:09.649Z,11.80
2023-05-08T16:57:38.618Z,12.20
2023-05-08T17:00:07.637Z,12.40
2023-05-08T17:02:35.600Z,11.60
2023-05-08T17:05:04.098Z,13.80
2023-05-08T17:07:31.896Z,15.80
2023-05-08T17:10:00.584Z,10.60
2023-05-08T17:12:28.509Z,11.00
2023-05-08T17:14:57.255Z,13.20
2023-05-08T17:17:24.995Z,12.20
2023-05-08T17:19:52.860Z,18.60
2023-05-08T17:22:22.728Z,13.40
2023-05-08T17:24:50.693Z,15.40
2023-05-08T17:27:19.668Z,16.60
2023-05-08T17:29:47.508Z,10.40
2023-05-08T17:32:15.380Z,14.20
2023-05-08T17:34:44.191Z,14.60
2023-05-08T17:37:12.152Z,12.80
2023-05-08T17:39:39.896Z,11.80
2023-05-08T17:42:08.207Z,10.60
2023-05-08T17:44:37.076Z,14.80
2023-05-08T17:47:04.929Z,10.40
2023-05-08T17:49:32.741Z,15.40
2023-05-08T17:52:00.737Z,12.80
2023-05-08T17:54:28.715Z,15.40
2023-05-08T17:56:56.650Z,15.20
2023-05-08T17:59:24.875Z,18.00
2023-05-08T18:01:52.729Z,20.00
2023-05-08T18:04:20.709Z,23.00
2023-05-08T18:06:49.799Z,13.20
2023-05-08T18:09:17.580Z,20.00
2023-05-08T18:11:45.861Z,18.80
2023-05-08T18:14:13.686Z,20.80
2023-05-08T18:16:41.481Z,16.80
2023-05-08T18:19:09.416Z,13.40
2023-05-08T18:21:37.261Z,16.20
2023-05-08T18:24:05.609Z,11.40
2023-05-08T18:26:33.539Z,13.80
2023-05-08T18:29:01.793Z,14.00
2023-05-08T18:31:29.715Z,16.20
2023-05-08T18:33:57.852Z,12.60
2023-05-08T18:36:26.176Z,14.80
2023-05-08T18:38:54.030Z,14.20
2023-05-08T18:41:22.153Z,12.40
2023-05-08T18:43:50.249Z,15.00
2023-05-08T18:46:18.147Z,13.20
2023-05-08T18:48:47.087Z,12.00
2023-05-08T18:51:15.389Z,14.80
2023-05-08T18:53:43.198Z,10.80
2023-05-08T18:56:12.704Z,13.00
2023-05-08T18:58:40.488Z,13.00
2023-05-08T19:01:09.558Z,12.80
2023-05-08T19:03:37.468Z,13.00
2023-05-08T19:06:05.431Z,12.00
2023-05-08T19:08:33.364Z,11.40
2023-05-08T19:11:01.256Z,10.60
2023-05-08T19:13:30.972Z,7.00
2023-05-08T19:15:58.810Z,10.00
2023-05-08T19:18:26.751Z,10.80
2023-05-08T19:20:54.617Z,12.20
2023-05-08T19:23:22.446Z,10.60
2023-05-08T19:25:51.007Z,12.60
2023-05-08T19:28:19.049Z,9.20
2023-05-08T19:30:47.159Z,9.80
2023-05-08T19:33:15.022Z,11.60
2023-05-08T19:35:43.110Z,3.40
2023-05-08T19:38:11.473Z,10.40
2023-05-08T19:40:54.815Z,10.00
2023-05-08T19:43:24.699Z,13.00
2023-05-08T19:45:52.697Z,14.20
2023-05-08T19:48:21.086Z,10.40
2023-05-08T19:50:48.968Z,12.60
2023-05-08T19:53:16.895Z,16.00
2023-05-08T19:55:45.037Z,12.60
2023-05-08T19:58:12.966Z,12.00
2023-05-08T20:00:41.548Z,13.80
2023-05-08T20:03:09.492Z,14.75
2023-05-08T20:05:37.468Z,13.00
2023-05-08T20:08:05.450Z,13.00
2023-05-08T20:10:33.312Z,15.50
2023-05-08T20:13:02.084Z,6.00
2023-05-08T20:15:30.116Z,12.40
2023-05-08T20:17:59.370Z,14.00
2023-05-08T20:20:27.470Z,10.50
2023-05-08T20:22:55.283Z,9.25
2023-05-08T20:25:24.043Z,15.50
2023-05-08T20:27:52.072Z,12.25
2023-05-08T20:30:21.458Z,11.00
2023-05-08T20:32:50.848Z,6.50
2023-05-08T20:35:18.677Z,10.00
2023-05-08T20:37:47.157Z,14.50
2023-05-08T20:40:15.656Z,12.80
2023-05-08T20:42:43.755Z,10.00
2023-05-08T20:45:11.754Z,11.75
2023-05-08T20:47:39.559Z,11.00
2023-05-08T20:50:07.991Z,15.50
2023-05-08T20:52:37.821Z,13.00
2023-05-08T20:55:06.728Z,6.00
2023-05-08T20:57:34.467Z,11.33
2023-05-08T21:00:02.503Z,9.00
2023-05-08T21:02:32.019Z,10.00
2023-05-08T21:05:00.104Z,10.00
2023-05-08T21:07:28.149Z,7.00
2023-05-08T21:09:55.953Z,11.50
2023-05-08T21:12:23.748Z,11.50
2023-05-08T21:14:52.256Z,14.00
2023-05-08T21:17:20.150Z,9.25
2023-05-08T21:19:48.068Z,12.50
2023-05-08T21:22:17.623Z,10.50
2023-05-08T21:24:45.558Z,12.00
2023-05-08T21:27:13.706Z,11.50
2023-05-08T21:29:41.729Z,11.50
2023-05-08T21:32:10.437Z,16.00
2023-05-08T21:34:38.333Z,17.25
2023-05-08T21:37:06.188Z,14.33
2023-05-08T21:39:34.448Z,13.00
2023-05-08T21:42:03.366Z,13.00
2023-05-08T21:44:31.658Z,15.75
2023-05-08T21:46:59.424Z,10.00
2023-05-08T21:49:27.256Z,11.50
2023-05-08T21:51:55.520Z,3.50
2023-05-08T21:54:24.341Z,12.25
2023-05-08T21:56:52.085Z,9.50
2023-05-08T21:59:19.810Z,12.50
2023-05-08T22:01:47.547Z,11.00
2023-05-08T22:04:15.910Z,13.50
2023-05-08T22:06:44.786Z,7.00
2023-05-08T22:09:12.616Z,6.50
2023-05-08T22:11:40.344Z,8.00
2023-05-08T22:14:08.138Z,12.00
2023-05-08T22:16:36.517Z,10.50
2023-05-08T22:19:04.374Z,10.00
2023-05-08T22:21:32.256Z,12.00
2023-05-08T22:24:00.019Z,6.75
2023-05-08T22:26:28.842Z,10.50
2023-05-08T22:28:58.516Z,12.25
2023-05-08T22:31:26.338Z,9.00
2023-05-08T22:33:54.090Z,11.50
2023-05-08T22:36:24.050Z,13.50
2023-05-08T22:38:51.880Z,9.50
2023-05-08T22:41:19.542Z,12.00
2023-05-08T22:43:47.254Z,16.50
2023-05-08T22:46:14.935Z,11.75
2023-05-08T22:48:42.890Z,16.50
2023-05-08T22:51:11.038Z,12.75
2023-05-08T22:53:39.102Z,15.00
2023-05-08T22:56:06.730Z,15.75
2023-05-08T22:58:34.405Z,15.75
2023-05-08T23:01:02.024Z,14.50
2023-05-08T23:03:29.755Z,15.25
2023-05-08T23:05:58.065Z,14.00
2023-05-08T23:08:25.708Z,13.50
2023-05-08T23:10:53.404Z,16.50
2023-05-08T23:13:21.803Z,13.00
2023-05-08T23:15:49.511Z,5.00
2023-05-08T23:18:18.094Z,18.00
2023-05-08T23:20:45.865Z,12.25
2023-05-08T23:23:13.555Z,15.75
2023-05-08T23:25:41.330Z,13.00
2023-05-08T23:28:09.080Z,18.00
2023-05-08T23:30:37.260Z,15.75
2023-05-08T23:33:04.904Z,15.50
2023-05-08T23:35:32.567Z,14.50
2023-05-08T23:38:00.229Z,19.00
2023-05-08T23:40:27.949Z,19.50
2023-05-08T23:42:56.263Z,23.25
2023-05-08T23:45:23.891Z,20.00
2023-05-08T23:47:51.564Z,18.00
2023-05-08T23:50:19.241Z,14.50
2023-05-08T23:52:46.861Z,14.00
2023-05-08T23:55:16.219Z,12.00
2023-05-08T23:57:43.913Z,17.00
